createdAt,value
2019-01-16T00:05:30.665Z,99.20
2019-01-16T00:16:02.195Z,99.10
2019-01-16T00:26:23.555Z,99.30
2019-01-16T00:36:55.641Z,99.10
2019-01-16T00:47:19.706Z,99.20
2019-01-16T00:57:48.758Z,99.30
2019-01-16T01:08:12.159Z,99.10
2019-01-16T01:18:40.460Z,99.20
2019-01-16T01:29:13.261Z,99.00
2019-01-16T01:39:34.998Z,99.10
2019-01-16T01:49:57.674Z,99.00
2019-01-16T02:00:19.110Z,99.00
2019-01-16T02:10:44.883Z,98.80
2019-01-16T02:21:08.038Z,98.90
2019-01-16T02:31:25.920Z,98.80
2019-01-16T02:42:06.746Z,98.70
2019-01-16T02:52:41.938Z,98.70
2019-01-16T03:03:11.070Z,98.70
2019-01-16T03:13:28.138Z,98.50
2019-01-16T03:23:42.550Z,98.50
2019-01-16T03:33:54.299Z,98.60
2019-01-16T03:44:19.949Z,98.60
2019-01-16T03:54:34.975Z,98.60
2019-01-16T04:04:46.725Z,98.60
2019-01-16T04:15:08.058Z,98.50
2019-01-16T04:25:30.736Z,98.50
2019-01-16T04:36:05.498Z,98.40
2019-01-16T04:46:28.183Z,98.40
2019-01-16T04:56:41.254Z,98.20
2019-01-16T05:07:06.529Z,98.20
2019-01-16T05:17:21.590Z,98.10
2019-01-16T05:27:38.554Z,98.20
2019-01-16T05:37:53.370Z,98.10
2019-01-16T05:48:25.392Z,98.00
2019-01-16T05:58:46.969Z,98.00
2019-01-16T06:08:58.779Z,98.20
2019-01-16T06:19:17.196Z,97.90
2019-01-16T06:29:38.594Z,97.80
2019-01-16T06:39:59.938Z,97.80
2019-01-16T06:50:16.583Z,97.80
2019-01-16T07:00:33.658Z,97.80
2019-01-16T07:11:02.528Z,98.00
2019-01-16T07:21:15.130Z,97.90
2019-01-16T07:31:38.358Z,98.00
2019-01-16T07:42:05.870Z,98.00
2019-01-16T07:52:24.190Z,98.00
2019-01-16T08:02:47.757Z,98.00
2019-01-16T08:13:09.378Z,98.00
2019-01-16T08:23:41.371Z,98.00
2019-01-16T08:34:06.886Z,98.00
2019-01-16T08:44:19.683Z,97.90
2019-01-16T08:54:41.371Z,97.90
2019-01-16T09:05:10.130Z,97.80
2019-01-16T09:15:22.764Z,97.60
2019-01-16T09:25:44.523Z,97.70
2019-01-16T09:36:10.041Z,97.60
2019-01-16T09:46:50.892Z,97.40
2019-01-16T09:57:12.404Z,97.20
2019-01-16T10:07:29.363Z,96.70
2019-01-16T10:18:07.339Z,96.50
2019-01-16T10:28:32.668Z,96.50
2019-01-16T10:39:04.694Z,96.30
2019-01-16T10:49:27.401Z,96.50
2019-01-16T11:00:00.094Z,96.60
2019-01-16T11:10:23.036Z,96.80
2019-01-16T11:20:40.903Z,97.10
2019-01-16T11:31:02.720Z,97.10
2019-01-16T11:41:12.640Z,97.30
2019-01-16T11:51:34.183Z,97.40
2019-01-16T12:01:55.436Z,97.40
2019-01-16T12:12:24.104Z,97.40
2019-01-16T12:22:47.457Z,97.30
2019-01-16T12:33:01.564Z,97.40
2019-01-16T12:43:25.744Z,97.30
2019-01-16T12:53:47.522Z,97.20
2019-01-16T13:04:16.632Z,97.10
2019-01-16T13:14:37.611Z,97.00
2019-01-16T13:25:18.971Z,97.10
2019-01-16T13:35:40.497Z,97.20
2019-01-16T13:46:02.043Z,97.40
2019-01-16T13:56:21.598Z,97.50
2019-01-16T14:06:43.334Z,97.60
2019-01-16T14:17:03.011Z,97.60
2019-01-16T14:27:29.338Z,97.60
2019-01-16T14:37:52.066Z,97.60
2019-01-16T14:48:02.213Z,97.50
2019-01-16T14:58:30.698Z,97.70
2019-01-16T15:09:06.009Z,97.50
2019-01-16T15:19:22.277Z,97.60
2019-01-16T15:29:35.904Z,97.70
2019-01-16T15:40:07.310Z,97.80
2019-01-16T15:50:28.707Z,97.80
2019-01-16T16:00:50.278Z,97.80
2019-01-16T16:11:04.322Z,97.90
2019-01-16T16:21:29.873Z,98.00
2019-01-16T16:31:55.655Z,98.00
2019-01-16T16:42:30.499Z,97.90
2019-01-16T16:52:52.106Z,98.00
2019-01-16T17:03:07.041Z,98.00
2019-01-16T17:13:21.119Z,97.90
2019-01-16T17:23:42.478Z,98.00
2019-01-16T17:34:04.179Z,97.90
2019-01-16T17:44:30.076Z,97.90
2019-01-16T17:54:51.610Z,97.80
2019-01-16T18:05:23.819Z,97.70
2019-01-16T18:15:45.255Z,97.80
2019-01-16T18:26:23.363Z,97.60
2019-01-16T18:36:44.900Z,97.70
2019-01-16T18:47:06.484Z,97.60
2019-01-16T18:57:35.323Z,97.60
2019-01-16T19:07:57.691Z,97.60
2019-01-16T19:18:23.154Z,97.30
2019-01-16T19:28:54.851Z,97.30
2019-01-16T19:39:16.443Z,97.30
2019-01-16T19:49:42.122Z,97.20
2019-01-16T20:00:13.586Z,97.30
2019-01-16T20:10:34.890Z,97.20
2019-01-16T20:21:00.714Z,97.40
2019-01-16T20:31:21.170Z,97.30
2019-01-16T20:41:42.674Z,97.30
2019-01-16T20:52:08.578Z,97.10
2019-01-16T21:02:31.206Z,97.20
2019-01-16T21:12:49.397Z,97.20
2019-01-16T21:23:03.490Z,97.10
2019-01-16T21:33:29.179Z,97.20
2019-01-16T21:44:00.887Z,97.10
2019-01-16T21:54:22.361Z,97.10
2019-01-16T22:04:37.261Z,97.20
2019-01-16T22:15:11.874Z,97.20
2019-01-16T22:25:43.557Z,97.40
2019-01-16T22:36:12.213Z,97.40
2019-01-16T22:46:29.244Z,97.50
2019-01-16T22:56:54.929Z,97.60
2019-01-16T23:07:07.304Z,97.80
2019-01-16T23:17:19.827Z,98.00
2019-01-16T23:27:40.443Z,98.10
2019-01-16T23:38:02.040Z,98.40
2019-01-16T23:48:24.063Z,98.40
2019-01-16T23:58:44.790Z,98.40
